createdAt,value
2022-12-17T00:02:03.257Z,14.13
2022-12-17T00:04:51.285Z,12.90
2022-12-17T00:07:38.161Z,12.70
2022-12-17T00:10:24.686Z,12.73
2022-12-17T00:13:10.625Z,11.40
2022-12-17T00:15:56.868Z,12.20
2022-12-17T00:18:43.138Z,11.63
2022-12-17T00:21:29.240Z,12.27
2022-12-17T00:24:15.353Z,12.40
2022-12-17T00:27:01.240Z,12.10
2022-12-17T00:29:47.245Z,12.37
2022-12-17T00:32:33.570Z,11.70
2022-12-17T00:35:19.492Z,11.70
2022-12-17T00:38:05.875Z,12.37
2022-12-17T00:40:53.008Z,11.60
2022-12-17T00:43:40.240Z,12.23
2022-12-17T00:46:26.253Z,13.57
2022-12-17T00:49:13.407Z,12.47
2022-12-17T00:51:59.298Z,14.17
2022-12-17T00:54:45.200Z,12.83
2022-12-17T00:57:33.233Z,13.17
2022-12-17T01:00:19.420Z,12.40
2022-12-17T01:03:06.142Z,12.73
2022-12-17T01:05:52.504Z,12.10
2022-12-17T01:08:38.805Z,11.87
2022-12-17T01:11:26.715Z,12.23
2022-12-17T01:14:13.170Z,12.00
2022-12-17T01:16:59.285Z,12.70
2022-12-17T01:20:02.430Z,12.83
2022-12-17T01:22:48.381Z,12.87
2022-12-17T01:25:34.741Z,12.73
2022-12-17T01:28:20.863Z,12.53
2022-12-17T01:31:06.790Z,11.50
2022-12-17T01:33:52.875Z,11.57
2022-12-17T01:36:38.733Z,12.40
2022-12-17T01:39:24.689Z,13.07
2022-12-17T01:42:10.619Z,17.47
2022-12-17T01:44:59.448Z,16.47
2022-12-17T01:47:47.440Z,13.70
2022-12-17T01:50:34.262Z,14.13
2022-12-17T01:53:21.517Z,13.20
2022-12-17T01:56:07.458Z,13.93
2022-12-17T01:58:54.067Z,13.27
2022-12-17T02:01:40.528Z,13.13
2022-12-17T02:04:27.303Z,12.73
2022-12-17T02:07:23.243Z,12.47
2022-12-17T02:10:27.777Z,12.57
2022-12-17T02:13:17.699Z,12.70
2022-12-17T02:16:09.603Z,13.13
2022-12-17T02:18:57.927Z,12.60
2022-12-17T02:21:45.461Z,13.30
2022-12-17T02:24:36.349Z,12.47
2022-12-17T02:27:24.458Z,12.80
2022-12-17T02:30:12.540Z,11.70
2022-12-17T02:32:59.701Z,12.37
2022-12-17T02:35:48.970Z,12.60
2022-12-17T02:38:45.501Z,12.00
2022-12-17T02:41:40.626Z,12.10
2022-12-17T02:44:27.301Z,13.10
2022-12-17T02:47:14.169Z,12.73
2022-12-17T02:50:00.553Z,13.27
2022-12-17T02:52:46.706Z,14.00
2022-12-17T02:55:32.970Z,13.97
2022-12-17T02:58:18.894Z,13.43
2022-12-17T03:01:04.676Z,12.90
2022-12-17T03:03:51.665Z,12.83
2022-12-17T03:06:41.931Z,12.23
2022-12-17T03:09:27.833Z,11.77
2022-12-17T03:12:13.712Z,12.17
2022-12-17T03:14:59.936Z,12.10
2022-12-17T03:17:46.201Z,12.73
2022-12-17T03:20:32.328Z,12.03
2022-12-17T03:23:25.340Z,13.07
2022-12-17T03:26:11.523Z,13.50
2022-12-17T03:28:57.815Z,12.90
2022-12-17T03:31:43.893Z,11.70
2022-12-17T03:34:30.121Z,12.03
2022-12-17T03:37:16.238Z,10.77
2022-12-17T03:40:02.470Z,11.67
2022-12-17T03:42:51.425Z,11.63
2022-12-17T03:45:37.308Z,12.53
2022-12-17T03:48:24.459Z,12.40
2022-12-17T03:51:12.104Z,11.57
2022-12-17T03:53:57.973Z,11.53
2022-12-17T03:56:44.514Z,11.77
2022-12-17T03:59:30.544Z,12.73
2022-12-17T04:02:17.524Z,11.23
2022-12-17T04:05:03.995Z,10.83
2022-12-17T04:07:49.797Z,11.10
2022-12-17T04:10:35.994Z,11.87
2022-12-17T04:13:21.755Z,10.47
2022-12-17T04:16:07.996Z,11.10
2022-12-17T04:18:53.989Z,10.83
2022-12-17T04:21:40.037Z,9.80
2022-12-17T04:24:26.306Z,10.83
2022-12-17T04:27:12.174Z,10.80
2022-12-17T04:29:58.344Z,11.00
2022-12-17T04:32:44.213Z,9.83
2022-12-17T04:35:30.370Z,11.60
2022-12-17T04:38:16.768Z,10.53
2022-12-17T04:41:03.002Z,10.67
2022-12-17T04:43:49.301Z,11.50
2022-12-17T04:46:35.189Z,11.33
2022-12-17T04:49:21.422Z,11.40
2022-12-17T04:52:07.512Z,11.63
2022-12-17T04:54:53.580Z,10.77
2022-12-17T04:57:39.690Z,11.27
2022-12-17T05:00:25.977Z,11.00
2022-12-17T05:03:11.807Z,11.57
2022-12-17T05:05:57.763Z,10.97
2022-12-17T05:08:43.676Z,11.03
2022-12-17T05:11:29.476Z,12.00
2022-12-17T05:14:15.521Z,11.90
2022-12-17T05:17:01.398Z,13.23
2022-12-17T05:19:47.679Z,13.63
2022-12-17T05:22:33.581Z,13.60
2022-12-17T05:25:19.410Z,12.80
2022-12-17T05:28:06.344Z,12.37
2022-12-17T05:30:52.506Z,13.50
2022-12-17T05:33:39.004Z,12.43
2022-12-17T05:36:25.663Z,12.53
2022-12-17T05:39:11.828Z,12.57
2022-12-17T05:41:57.676Z,12.40
2022-12-17T05:44:43.972Z,12.20
2022-12-17T05:47:30.166Z,12.70
2022-12-17T05:50:16.307Z,11.73
2022-12-17T05:53:02.551Z,12.37
2022-12-17T05:55:48.338Z,12.47
2022-12-17T05:58:34.433Z,12.77
2022-12-17T06:01:21.953Z,13.77
2022-12-17T06:04:07.991Z,15.67
2022-12-17T06:06:54.203Z,15.13
2022-12-17T06:09:40.420Z,14.33
2022-12-17T06:12:26.290Z,19.07
2022-12-17T06:15:18.590Z,19.87
2022-12-17T06:18:16.471Z,15.30
2022-12-17T06:21:25.451Z,13.70
2022-12-17T06:24:11.489Z,16.40
2022-12-17T06:26:57.688Z,15.07
2022-12-17T06:29:43.623Z,17.00
2022-12-17T06:32:29.687Z,14.73
2022-12-17T06:35:15.891Z,13.23
2022-12-17T06:38:01.571Z,12.30
2022-12-17T06:40:47.562Z,12.87
2022-12-17T06:43:33.788Z,12.43
2022-12-17T06:46:20.208Z,11.37
2022-12-17T06:49:06.180Z,10.97
2022-12-17T06:51:52.281Z,12.83
2022-12-17T06:54:38.459Z,10.37
2022-12-17T06:57:24.620Z,11.80
2022-12-17T07:00:10.792Z,11.17
2022-12-17T07:02:56.948Z,11.70
2022-12-17T07:05:43.528Z,11.60
2022-12-17T07:08:29.398Z,11.37
2022-12-17T07:11:18.321Z,10.00
2022-12-17T07:14:04.272Z,10.53
2022-12-17T07:16:50.608Z,10.30
2022-12-17T07:19:36.379Z,10.80
2022-12-17T07:22:22.580Z,11.00
2022-12-17T07:25:08.648Z,10.40
2022-12-17T07:27:54.791Z,10.37
2022-12-17T07:30:41.198Z,11.27
2022-12-17T07:33:28.663Z,11.30
2022-12-17T07:36:15.522Z,10.40
2022-12-17T07:39:01.581Z,10.83
2022-12-17T07:41:47.842Z,10.67
2022-12-17T07:44:34.036Z,11.83
2022-12-17T07:47:19.808Z,11.33
2022-12-17T07:50:06.000Z,10.90
2022-12-17T07:52:51.909Z,13.00
2022-12-17T07:55:37.822Z,12.03
2022-12-17T07:58:25.170Z,12.93
2022-12-17T08:01:11.387Z,13.47
2022-12-17T08:03:57.890Z,13.87
2022-12-17T08:06:44.059Z,13.43
2022-12-17T08:09:30.380Z,12.90
2022-12-17T08:12:16.266Z,12.63
2022-12-17T08:15:02.577Z,13.40
2022-12-17T08:17:48.479Z,13.70
2022-12-17T08:20:38.947Z,14.00
2022-12-17T08:23:25.261Z,13.23
2022-12-17T08:26:11.452Z,14.07
2022-12-17T08:28:58.095Z,15.03
2022-12-17T08:31:44.490Z,16.73
2022-12-17T08:34:30.774Z,15.77
2022-12-17T08:37:16.740Z,16.70
2022-12-17T08:40:02.885Z,15.43
2022-12-17T08:42:49.215Z,18.53
2022-12-17T08:45:34.967Z,20.63
2022-12-17T08:48:22.106Z,17.17
2022-12-17T08:51:08.108Z,16.40
2022-12-17T08:53:54.304Z,15.80
2022-12-17T08:56:40.292Z,14.73
2022-12-17T08:59:26.461Z,15.43
2022-12-17T09:02:12.794Z,13.17
2022-12-17T09:04:58.983Z,17.27
2022-12-17T09:07:45.401Z,17.73
2022-12-17T09:10:32.137Z,19.33
2022-12-17T09:13:21.996Z,18.83
2022-12-17T09:16:11.367Z,15.53
2022-12-17T09:18:58.179Z,14.77
2022-12-17T09:21:48.041Z,15.53
2022-12-17T09:24:34.408Z,17.60
2022-12-17T09:27:20.974Z,19.97
2022-12-17T09:30:06.999Z,19.50
2022-12-17T09:32:53.062Z,17.77
2022-12-17T09:35:38.926Z,19.70
2022-12-17T09:38:25.346Z,21.07
2022-12-17T09:41:11.502Z,18.47
2022-12-17T09:44:03.809Z,18.07
2022-12-17T09:46:54.954Z,15.63
2022-12-17T09:49:43.100Z,14.63
2022-12-17T09:53:07.374Z,14.60
2022-12-17T09:55:54.327Z,14.93
2022-12-17T09:58:43.668Z,16.60
2022-12-17T10:01:35.608Z,15.73
2022-12-17T10:04:23.488Z,15.50
2022-12-17T10:07:09.519Z,15.47
2022-12-17T10:09:56.440Z,16.10
2022-12-17T10:12:43.446Z,15.70
2022-12-17T10:15:32.865Z,15.17
2022-12-17T10:18:25.111Z,14.47
2022-12-17T10:21:17.579Z,14.67
2022-12-17T10:24:03.431Z,15.27
2022-12-17T10:26:50.663Z,15.93
2022-12-17T10:29:47.438Z,16.63
2022-12-17T10:32:34.476Z,16.30
2022-12-17T10:35:26.411Z,15.33
2022-12-17T10:38:23.504Z,17.73
2022-12-17T10:41:10.333Z,16.17
2022-12-17T10:43:58.301Z,16.53
2022-12-17T10:46:45.363Z,17.40
2022-12-17T10:49:33.558Z,24.53
2022-12-17T10:52:20.467Z,17.73
2022-12-17T10:55:16.968Z,15.63
2022-12-17T10:58:03.734Z,13.90
2022-12-17T11:00:51.036Z,13.10
2022-12-17T11:03:45.144Z,12.13
2022-12-17T11:06:37.508Z,10.60
2022-12-17T11:09:34.496Z,9.93
2022-12-17T11:12:24.578Z,8.33
2022-12-17T11:15:15.808Z,9.20
2022-12-17T11:18:09.475Z,8.77
2022-12-17T11:21:17.061Z,9.07
2022-12-17T11:24:05.951Z,9.87
2022-12-17T11:26:53.772Z,11.30
2022-12-17T11:29:39.570Z,11.97
2022-12-17T11:32:31.519Z,14.47
2022-12-17T11:35:27.614Z,12.67
2022-12-17T11:38:13.456Z,10.53
2022-12-17T11:41:03.445Z,11.23
2022-12-17T11:43:58.760Z,11.87
2022-12-17T11:46:57.283Z,11.47
2022-12-17T11:50:02.456Z,11.43
2022-12-17T11:53:06.351Z,10.37
2022-12-17T11:55:58.498Z,11.07
2022-12-17T11:58:44.398Z,11.03
2022-12-17T12:01:42.709Z,10.30
2022-12-17T12:04:37.402Z,11.00
2022-12-17T12:07:29.454Z,13.10
2022-12-17T12:10:30.706Z,12.93
2022-12-17T12:13:35.341Z,12.93
2022-12-17T12:16:39.228Z,11.97
2022-12-17T12:19:42.734Z,11.53
2022-12-17T12:22:49.015Z,10.57
2022-12-17T12:25:41.706Z,11.17
2022-12-17T12:28:37.867Z,12.60
2022-12-17T12:31:46.925Z,10.70
2022-12-17T12:34:35.633Z,10.43
2022-12-17T12:37:22.753Z,11.10
2022-12-17T12:40:08.869Z,10.40
2022-12-17T12:42:59.109Z,10.90
2022-12-17T12:45:48.293Z,10.47
2022-12-17T12:48:44.388Z,11.43
2022-12-17T12:51:36.510Z,10.37
2022-12-17T12:54:40.107Z,10.77
2022-12-17T12:57:44.705Z,11.53
2022-12-17T13:01:00.771Z,12.13
2022-12-17T13:03:46.639Z,11.40
2022-12-17T13:06:16.090Z,12.47
2022-12-17T13:08:43.392Z,12.50
2022-12-17T13:11:12.448Z,14.43
2022-12-17T13:13:56.225Z,13.53
2022-12-17T13:16:33.647Z,12.57
2022-12-17T13:19:06.022Z,13.70
2022-12-17T13:21:33.332Z,12.23
2022-12-17T13:24:10.762Z,12.20
2022-12-17T13:26:41.909Z,12.27
2022-12-17T13:29:20.717Z,13.67
2022-12-17T13:31:54.365Z,13.63
2022-12-17T13:34:51.201Z,12.03
2022-12-17T13:37:21.727Z,11.90
2022-12-17T13:40:06.690Z,13.27
2022-12-17T13:42:36.225Z,12.27
2022-12-17T13:45:03.986Z,10.27
2022-12-17T13:47:37.870Z,10.43
2022-12-17T13:50:35.874Z,11.37
2022-12-17T13:53:11.079Z,11.13
2022-12-17T13:55:39.440Z,11.77
2022-12-17T13:58:06.797Z,11.57
2022-12-17T14:00:34.274Z,11.87
2022-12-17T14:03:10.869Z,11.77
2022-12-17T14:05:41.685Z,12.13
2022-12-17T14:08:09.287Z,11.00
2022-12-17T14:10:37.094Z,9.87
2022-12-17T14:13:08.550Z,7.87
2022-12-17T14:15:36.076Z,7.87
2022-12-17T14:18:03.831Z,8.20
2022-12-17T14:20:31.064Z,8.10
2022-12-17T14:23:04.007Z,8.57
2022-12-17T14:25:36.737Z,8.03
2022-12-17T14:28:04.106Z,8.60
2022-12-17T14:31:02.631Z,11.68
2022-12-17T14:33:29.209Z,9.13
2022-12-17T14:36:17.554Z,9.43
2022-12-17T14:39:01.549Z,10.90
2022-12-17T14:41:48.359Z,11.13
2022-12-17T14:44:35.921Z,11.67
2022-12-17T14:47:09.604Z,17.87
2022-12-17T14:49:38.634Z,19.47
2022-12-17T14:52:13.700Z,19.47
2022-12-17T14:54:46.443Z,16.30
2022-12-17T14:57:23.573Z,13.77
2022-12-17T14:59:52.512Z,15.20
2022-12-17T15:02:28.014Z,16.00
2022-12-17T15:05:01.775Z,17.20
2022-12-17T15:07:30.031Z,17.60
2022-12-17T15:10:00.833Z,17.17
2022-12-17T15:12:28.584Z,19.33
2022-12-17T15:14:56.001Z,22.83
2022-12-17T15:17:23.241Z,22.93
2022-12-17T15:19:55.980Z,21.87
2022-12-17T15:22:24.073Z,21.60
2022-12-17T15:24:51.499Z,24.13
2022-12-17T15:27:18.891Z,21.53
2022-12-17T15:29:46.278Z,19.90
2022-12-17T15:32:20.595Z,22.57
2022-12-17T15:34:48.002Z,21.43
2022-12-17T15:37:19.749Z,18.87
2022-12-17T15:39:50.065Z,18.87
2022-12-17T15:42:35.985Z,23.33
2022-12-17T15:45:03.450Z,23.23
2022-12-17T15:47:30.793Z,20.60
2022-12-17T15:49:58.175Z,21.73
2022-12-17T15:52:25.525Z,22.57
2022-12-17T15:54:53.082Z,23.13
2022-12-17T15:57:20.413Z,23.07
2022-12-17T15:59:47.831Z,23.97
2022-12-17T16:02:15.234Z,24.13
2022-12-17T16:04:42.774Z,25.87
2022-12-17T16:07:10.494Z,25.80
2022-12-17T16:09:37.945Z,24.80
2022-12-17T16:12:05.419Z,21.57
2022-12-17T16:14:32.958Z,21.93
2022-12-17T16:17:00.525Z,22.40
2022-12-17T16:19:27.937Z,24.67
2022-12-17T16:21:55.351Z,23.57
2022-12-17T16:24:22.859Z,23.13
2022-12-17T16:26:50.307Z,23.73
2022-12-17T16:29:17.810Z,25.20
2022-12-17T16:31:46.520Z,24.23
2022-12-17T16:34:14.067Z,24.70
2022-12-17T16:36:41.587Z,23.90
2022-12-17T16:39:09.104Z,23.27
2022-12-17T16:41:36.759Z,21.73
2022-12-17T16:44:05.021Z,21.03
2022-12-17T16:46:34.016Z,22.63
2022-12-17T16:49:12.397Z,23.80
2022-12-17T16:51:40.411Z,22.10
2022-12-17T16:54:09.847Z,21.83
2022-12-17T16:56:40.420Z,21.73
2022-12-17T16:59:08.710Z,21.27
2022-12-17T17:01:36.749Z,21.57
2022-12-17T17:04:04.699Z,22.87
2022-12-17T17:06:33.978Z,22.47
2022-12-17T17:09:03.969Z,22.47
2022-12-17T17:11:31.306Z,21.43
2022-12-17T17:13:58.665Z,20.43
2022-12-17T17:16:26.303Z,20.00
2022-12-17T17:18:53.968Z,19.83
2022-12-17T17:21:23.345Z,21.17
2022-12-17T17:23:52.134Z,23.63
2022-12-17T17:26:21.141Z,22.37
2022-12-17T17:28:48.884Z,23.80
2022-12-17T17:31:17.746Z,22.17
2022-12-17T17:33:49.668Z,22.90
2022-12-17T17:36:19.797Z,22.20
2022-12-17T17:38:47.652Z,27.57
2022-12-17T17:41:16.153Z,34.77
2022-12-17T17:43:43.582Z,33.50
2022-12-17T17:46:15.192Z,29.47
2022-12-17T17:48:43.683Z,29.03
2022-12-17T17:51:18.275Z,27.23
2022-12-17T17:53:46.181Z,26.37
2022-12-17T17:56:17.882Z,27.30
2022-12-17T17:58:50.178Z,25.83
2022-12-17T18:01:22.531Z,25.40
2022-12-17T18:03:50.495Z,26.00
2022-12-17T18:06:18.407Z,25.27
2022-12-17T18:08:45.729Z,25.53
2022-12-17T18:11:17.869Z,26.27
2022-12-17T18:13:54.997Z,26.37
2022-12-17T18:16:22.374Z,25.97
2022-12-17T18:18:50.263Z,26.37
2022-12-17T18:21:19.388Z,26.33
2022-12-17T18:23:47.541Z,25.43
2022-12-17T18:26:19.806Z,24.53
2022-12-17T18:28:47.840Z,22.17
2022-12-17T18:31:22.491Z,23.10
2022-12-17T18:33:51.532Z,21.67
2022-12-17T18:36:20.352Z,23.03
2022-12-17T18:38:48.349Z,25.47
2022-12-17T18:41:35.702Z,23.83
2022-12-17T18:44:08.526Z,28.90
2022-12-17T18:46:36.311Z,30.83
2022-12-17T18:49:05.481Z,27.13
2022-12-17T18:51:33.015Z,28.17
2022-12-17T18:54:01.219Z,31.57
2022-12-17T18:56:59.633Z,27.83
2022-12-17T18:59:19.008Z,31.33
2022-12-17T19:01:47.156Z,33.40
2022-12-17T19:04:16.997Z,30.43
2022-12-17T19:06:44.809Z,27.90
2022-12-17T19:09:20.592Z,23.20
2022-12-17T19:11:49.044Z,26.70
2022-12-17T19:14:17.520Z,27.47
2022-12-17T19:16:46.356Z,32.77
2022-12-17T19:19:14.044Z,32.30
2022-12-17T19:21:42.360Z,33.57
2022-12-17T19:24:12.721Z,38.60
2022-12-17T19:26:41.178Z,32.70
2022-12-17T19:29:10.830Z,32.80
2022-12-17T19:31:38.367Z,34.00
2022-12-17T19:34:07.652Z,32.00
2022-12-17T19:36:36.078Z,26.77
2022-12-17T19:39:05.294Z,24.23
2022-12-17T19:41:33.167Z,22.60
2022-12-17T19:44:07.738Z,22.97
2022-12-17T19:46:36.071Z,22.60
2022-12-17T19:49:03.953Z,25.60
2022-12-17T19:51:32.276Z,22.03
2022-12-17T19:54:06.484Z,22.37
2022-12-17T19:56:36.186Z,21.83
2022-12-17T19:59:07.022Z,22.13
2022-12-17T20:01:36.936Z,26.40
2022-12-17T20:04:04.791Z,25.80
2022-12-17T20:06:34.313Z,26.60
2022-12-17T20:09:04.152Z,26.37
2022-12-17T20:11:33.127Z,26.60
2022-12-17T20:14:09.276Z,23.77
2022-12-17T20:16:38.069Z,20.97
2022-12-17T20:19:07.569Z,21.17
2022-12-17T20:21:36.131Z,21.37
2022-12-17T20:24:04.834Z,21.33
2022-12-17T20:26:32.538Z,22.83
2022-12-17T20:29:00.056Z,27.50
2022-12-17T20:31:28.493Z,28.77
2022-12-17T20:33:56.523Z,27.20
2022-12-17T20:36:24.425Z,27.67
2022-12-17T20:38:51.991Z,24.20
2022-12-17T20:41:21.706Z,24.70
2022-12-17T20:43:50.706Z,24.83
2022-12-17T20:46:20.310Z,24.27
2022-12-17T20:48:48.387Z,23.17
2022-12-17T20:51:17.623Z,22.00
2022-12-17T20:53:45.848Z,20.83
2022-12-17T20:56:15.803Z,22.07
2022-12-17T20:58:43.326Z,21.77
2022-12-17T21:01:15.847Z,25.33
2022-12-17T21:03:43.729Z,24.00
2022-12-17T21:06:19.168Z,25.47
2022-12-17T21:08:50.045Z,28.53
2022-12-17T21:11:22.690Z,27.20
2022-12-17T21:13:50.359Z,26.47
2022-12-17T21:16:19.803Z,25.63
2022-12-17T21:18:47.403Z,25.33
2022-12-17T21:21:17.992Z,24.13
2022-12-17T21:23:46.298Z,24.83
2022-12-17T21:26:16.761Z,25.03
2022-12-17T21:28:47.989Z,32.50
2022-12-17T21:31:19.652Z,24.47
2022-12-17T21:33:47.866Z,24.30
2022-12-17T21:36:17.000Z,27.33
2022-12-17T21:38:44.456Z,36.50
2022-12-17T21:41:13.731Z,28.23
2022-12-17T21:43:41.649Z,27.67
2022-12-17T21:46:10.195Z,26.93
2022-12-17T21:48:42.489Z,25.50
2022-12-17T21:51:13.263Z,25.70
2022-12-17T21:53:42.925Z,27.17
2022-12-17T21:56:15.650Z,25.93
2022-12-17T21:58:46.865Z,25.33
2022-12-17T22:01:19.952Z,24.40
2022-12-17T22:03:53.762Z,24.57
2022-12-17T22:06:22.234Z,23.53
2022-12-17T22:08:56.493Z,23.13
2022-12-17T22:11:27.827Z,23.43
2022-12-17T22:14:20.351Z,21.47
2022-12-17T22:16:52.618Z,22.27
2022-12-17T22:19:22.549Z,22.33
2022-12-17T22:21:50.976Z,20.23
2022-12-17T22:24:20.144Z,20.40
2022-12-17T22:26:47.573Z,21.67
2022-12-17T22:29:35.434Z,22.60
2022-12-17T22:32:21.643Z,19.83
2022-12-17T22:36:02.774Z,17.90
2022-12-17T22:40:46.820Z,20.97
2022-12-17T22:44:34.737Z,20.40
2022-12-17T22:44:41.157Z,21.80
2022-12-17T22:46:20.280Z,22.90
2022-12-17T22:48:47.859Z,17.93
2022-12-17T22:51:18.816Z,20.63
2022-12-17T22:53:56.744Z,21.20
2022-12-17T22:56:39.740Z,22.33
2022-12-17T22:59:19.450Z,23.43
2022-12-17T23:01:47.447Z,24.33
2022-12-17T23:04:16.091Z,20.90
2022-12-17T23:06:47.840Z,20.43
2022-12-17T23:09:16.380Z,21.37
2022-12-17T23:11:43.862Z,22.83
2022-12-17T23:14:11.538Z,19.83
2022-12-17T23:16:39.756Z,22.30
2022-12-17T23:19:07.728Z,23.53
2022-12-17T23:21:35.262Z,23.40
2022-12-17T23:24:03.274Z,35.60
2022-12-17T23:26:32.902Z,34.17
2022-12-17T23:29:02.586Z,24.77
2022-12-17T23:31:35.852Z,23.63
2022-12-17T23:34:03.431Z,24.00
2022-12-17T23:36:30.898Z,24.17
2022-12-17T23:38:58.638Z,23.97
2022-12-17T23:41:27.422Z,22.87
2022-12-17T23:43:56.795Z,21.53
2022-12-17T23:46:26.800Z,21.63
2022-12-17T23:48:55.865Z,22.00
2022-12-17T23:51:24.031Z,21.37
2022-12-17T23:53:51.410Z,22.33
2022-12-17T23:56:23.847Z,20.87
2022-12-17T23:59:01.972Z,20.70
